createdAt,value
2018-07-08T00:01:02.526Z,9.70
2018-07-08T00:03:29.681Z,9.80
2018-07-08T00:05:56.839Z,9.80
2018-07-08T00:08:23.788Z,9.80
2018-07-08T00:10:51.252Z,9.80
2018-07-08T00:13:18.407Z,9.90
2018-07-08T00:15:46.794Z,9.90
2018-07-08T00:18:13.641Z,9.90
2018-07-08T00:20:41.002Z,9.90
2018-07-08T00:23:07.958Z,9.90
2018-07-08T00:25:35.212Z,9.90
2018-07-08T00:28:02.165Z,9.90
2018-07-08T00:30:29.011Z,10.00
2018-07-08T00:32:56.069Z,10.00
2018-07-08T00:35:22.816Z,9.90
2018-07-08T00:37:49.967Z,10.00
2018-07-08T00:40:17.228Z,10.00
2018-07-08T00:42:44.177Z,10.00
2018-07-08T00:45:10.990Z,10.00
2018-07-08T00:47:37.977Z,10.00
2018-07-08T00:50:04.931Z,10.00
2018-07-08T00:52:31.884Z,10.00
2018-07-08T00:54:58.839Z,10.00
2018-07-08T00:57:25.681Z,10.00
2018-07-08T00:59:52.633Z,10.00
2018-07-08T01:02:19.993Z,10.00
2018-07-08T01:04:46.946Z,10.00
2018-07-08T01:07:13.898Z,9.90
2018-07-08T01:09:40.850Z,9.90
2018-07-08T01:12:07.697Z,10.00
2018-07-08T01:14:34.545Z,9.90
2018-07-08T01:17:01.496Z,9.90
2018-07-08T01:19:28.345Z,9.90
2018-07-08T01:21:55.712Z,9.90
2018-07-08T01:24:23.068Z,9.80
2018-07-08T01:26:50.429Z,9.80
2018-07-08T01:29:17.482Z,9.80
2018-07-08T01:31:44.333Z,9.80
2018-07-08T01:34:11.487Z,9.80
2018-07-08T01:36:38.239Z,9.70
2018-07-08T01:39:05.492Z,9.80
2018-07-08T01:41:32.748Z,9.80
2018-07-08T01:43:59.605Z,9.80
2018-07-08T01:46:26.550Z,9.80
2018-07-08T01:48:53.811Z,9.70
2018-07-08T01:51:20.760Z,9.70
2018-07-08T01:53:47.612Z,9.70
2018-07-08T01:56:14.560Z,9.70
2018-07-08T01:58:41.512Z,9.70
2018-07-08T02:01:08.567Z,9.70
2018-07-08T02:03:35.415Z,9.70
2018-07-08T02:06:02.468Z,9.60
2018-07-08T02:08:29.316Z,9.60
2018-07-08T02:10:56.679Z,9.60
2018-07-08T02:13:23.628Z,9.60
2018-07-08T02:15:50.478Z,9.60
2018-07-08T02:18:17.738Z,9.60
2018-07-08T02:20:44.688Z,9.60
2018-07-08T02:23:11.538Z,9.60
2018-07-08T02:25:38.387Z,9.70
2018-07-08T02:28:05.556Z,9.70
2018-07-08T02:30:32.697Z,9.70
2018-07-08T02:32:59.548Z,9.70
2018-07-08T02:35:26.396Z,9.80
2018-07-08T02:37:53.349Z,9.80
2018-07-08T02:40:20.608Z,9.80
2018-07-08T02:42:47.557Z,9.90
2018-07-08T02:45:14.407Z,10.00
2018-07-08T02:47:41.258Z,10.00
2018-07-08T02:50:09.437Z,10.00
2018-07-08T02:52:36.795Z,10.00
2018-07-08T02:55:03.748Z,10.10
2018-07-08T02:57:31.516Z,10.20
2018-07-08T02:59:58.367Z,10.20
2018-07-08T03:02:25.214Z,10.30
2018-07-08T03:04:52.577Z,10.40
2018-07-08T03:07:19.836Z,10.40
2018-07-08T03:09:48.322Z,10.50
2018-07-08T03:12:15.171Z,10.50
2018-07-08T03:14:42.325Z,10.70
2018-07-08T03:17:09.277Z,10.70
2018-07-08T03:19:36.127Z,10.80
2018-07-08T03:22:03.075Z,10.80
2018-07-08T03:24:30.030Z,10.90
2018-07-08T03:26:57.191Z,10.90
2018-07-08T03:29:24.342Z,11.00
2018-07-08T03:31:51.295Z,11.10
2018-07-08T03:34:18.654Z,11.20
2018-07-08T03:36:45.602Z,11.30
2018-07-08T03:39:12.558Z,11.30
2018-07-08T03:41:39.410Z,11.40
2018-07-08T03:44:06.764Z,11.40
2018-07-08T03:46:33.718Z,11.50
2018-07-08T03:49:00.873Z,11.50
2018-07-08T03:51:28.539Z,11.60
2018-07-08T03:53:55.908Z,11.60
2018-07-08T03:56:22.652Z,11.70
2018-07-08T03:58:49.466Z,11.80
2018-07-08T04:01:16.449Z,11.90
2018-07-08T04:03:43.605Z,12.00
2018-07-08T04:06:10.758Z,12.10
2018-07-08T04:08:38.017Z,12.20
2018-07-08T04:11:05.603Z,12.70
2018-07-08T04:13:32.537Z,12.60
2018-07-08T04:15:59.486Z,12.80
2018-07-08T04:18:26.336Z,12.90
2018-07-08T04:20:53.183Z,13.10
2018-07-08T04:23:20.033Z,13.50
2018-07-08T04:25:46.983Z,14.00
2018-07-08T04:28:13.832Z,14.70
2018-07-08T04:30:40.784Z,15.70
2018-07-08T04:33:07.737Z,16.70
2018-07-08T04:35:34.689Z,18.40
2018-07-08T04:38:01.640Z,20.70
2018-07-08T04:40:28.512Z,23.00
2018-07-08T04:42:55.438Z,25.80
2018-07-08T04:45:22.289Z,27.80
2018-07-08T04:47:49.136Z,29.00
2018-07-08T04:50:16.394Z,28.30
2018-07-08T04:52:44.066Z,24.90
2018-07-08T04:55:10.912Z,24.80
2018-07-08T04:57:37.865Z,23.70
2018-07-08T05:00:04.815Z,22.60
2018-07-08T05:02:32.484Z,24.20
2018-07-08T05:04:59.335Z,24.20
2018-07-08T05:07:26.191Z,25.90
2018-07-08T05:09:53.032Z,27.10
2018-07-08T05:12:19.879Z,28.20
2018-07-08T05:14:47.241Z,29.80
2018-07-08T05:17:14.088Z,29.70
2018-07-08T05:19:40.934Z,30.30
2018-07-08T05:22:07.878Z,32.60
2018-07-08T05:24:35.661Z,32.20
2018-07-08T05:27:02.426Z,33.00
2018-07-08T05:29:29.356Z,31.90
2018-07-08T05:31:56.207Z,32.70
2018-07-08T05:34:23.463Z,33.90
2018-07-08T05:36:50.415Z,33.30
2018-07-08T05:39:17.287Z,35.80
2018-07-08T05:41:44.524Z,34.40
2018-07-08T05:44:11.783Z,34.50
2018-07-08T05:46:38.632Z,34.00
2018-07-08T05:49:05.992Z,36.10
2018-07-08T05:51:32.844Z,33.70
2018-07-08T05:54:00.407Z,37.40
2018-07-08T05:56:27.462Z,37.30
2018-07-08T05:58:54.309Z,36.00
2018-07-08T06:01:21.158Z,37.20
2018-07-08T06:03:48.120Z,37.20
2018-07-08T06:06:15.061Z,38.30
2018-07-08T06:08:42.317Z,38.50
2018-07-08T06:11:09.169Z,40.10
2018-07-08T06:13:36.015Z,39.80
2018-07-08T06:16:03.274Z,38.60
2018-07-08T06:18:30.126Z,37.90
2018-07-08T06:20:56.972Z,39.00
2018-07-08T06:23:23.922Z,39.60
2018-07-08T06:25:50.895Z,39.60
2018-07-08T06:28:17.930Z,39.40
2018-07-08T06:30:45.191Z,38.50
2018-07-08T06:33:13.262Z,39.20
2018-07-08T06:35:40.830Z,39.20
2018-07-08T06:38:07.781Z,38.90
2018-07-08T06:40:34.732Z,38.20
2018-07-08T06:43:02.091Z,38.90
2018-07-08T06:45:29.218Z,37.00
2018-07-08T06:47:56.304Z,38.10
2018-07-08T06:50:23.254Z,37.00
2018-07-08T06:52:50.103Z,36.00
2018-07-08T06:55:17.886Z,38.10
2018-07-08T06:57:44.971Z,38.10
2018-07-08T07:00:11.774Z,38.60
2018-07-08T07:02:38.625Z,38.30
2018-07-08T07:05:05.986Z,38.20
2018-07-08T07:07:32.835Z,38.70
2018-07-08T07:09:59.685Z,38.10
2018-07-08T07:12:26.633Z,39.10
2018-07-08T07:14:53.789Z,39.50
2018-07-08T07:17:20.773Z,36.60
2018-07-08T07:19:47.591Z,36.00
2018-07-08T07:22:14.544Z,36.80
2018-07-08T07:24:41.389Z,36.80
2018-07-08T07:27:08.549Z,38.70
2018-07-08T07:29:35.497Z,39.10
2018-07-08T07:32:03.167Z,40.90
2018-07-08T07:34:30.434Z,38.70
2018-07-08T07:36:57.650Z,39.20
2018-07-08T07:39:24.738Z,37.10
2018-07-08T07:41:51.687Z,39.20
2018-07-08T07:44:18.539Z,37.80
2018-07-08T07:46:45.694Z,36.20
2018-07-08T07:49:13.054Z,37.70
2018-07-08T07:51:40.208Z,35.90
2018-07-08T07:54:07.058Z,37.20
2018-07-08T07:56:35.647Z,39.10
2018-07-08T07:59:02.844Z,39.10
2018-07-08T08:01:29.653Z,39.40
2018-07-08T08:03:56.811Z,39.00
2018-07-08T08:06:23.862Z,40.30
2018-07-08T08:08:50.714Z,42.20
2018-07-08T08:11:17.595Z,42.50
2018-07-08T08:13:46.099Z,39.30
2018-07-08T08:16:14.841Z,39.30
2018-07-08T08:18:41.804Z,36.60
2018-07-08T08:21:09.255Z,37.20
2018-07-08T08:23:36.717Z,36.70
2018-07-08T08:26:03.977Z,36.70
2018-07-08T08:28:31.133Z,36.00
2018-07-08T08:30:58.495Z,37.20
2018-07-08T08:33:25.446Z,37.00
2018-07-08T08:35:52.394Z,36.60
2018-07-08T08:38:19.654Z,37.30
2018-07-08T08:40:46.504Z,38.40
2018-07-08T08:43:13.762Z,38.20
2018-07-08T08:45:40.919Z,37.10
2018-07-08T08:48:07.870Z,37.60
2018-07-08T08:50:35.447Z,37.60
2018-07-08T08:53:03.410Z,37.60
2018-07-08T08:55:30.358Z,37.10
2018-07-08T08:57:58.539Z,34.50
2018-07-08T09:00:25.900Z,34.50
2018-07-08T09:02:52.855Z,33.70
2018-07-08T09:05:19.704Z,32.50
2018-07-08T09:07:46.549Z,32.00
2018-07-08T09:10:13.910Z,31.40
2018-07-08T09:12:40.861Z,30.40
2018-07-08T09:15:07.709Z,29.60
2018-07-08T09:17:34.663Z,29.90
2018-07-08T09:20:01.611Z,29.20
2018-07-08T09:22:28.463Z,29.80
2018-07-08T09:24:55.414Z,29.30
2018-07-08T09:27:22.365Z,29.90
2018-07-08T09:29:49.217Z,30.00
2018-07-08T09:32:16.575Z,30.40
2018-07-08T09:34:43.843Z,30.20
2018-07-08T09:37:10.683Z,30.60
2018-07-08T09:39:37.633Z,29.90
2018-07-08T09:42:04.583Z,29.80
2018-07-08T09:44:31.331Z,28.90
2018-07-08T09:46:58.284Z,28.60
2018-07-08T09:49:26.053Z,29.10
2018-07-08T09:51:53.413Z,29.10
2018-07-08T09:54:20.365Z,29.30
2018-07-08T09:56:47.314Z,29.40
2018-07-08T09:59:15.391Z,27.80
2018-07-08T10:01:43.164Z,28.30
2018-07-08T10:04:10.420Z,28.20
2018-07-08T10:06:38.096Z,28.70
2018-07-08T10:09:06.574Z,27.30
2018-07-08T10:11:33.935Z,27.30
2018-07-08T10:14:01.537Z,27.40
2018-07-08T10:16:28.760Z,27.60
2018-07-08T10:18:55.915Z,27.90
2018-07-08T10:21:23.434Z,28.40
2018-07-08T10:23:51.355Z,28.70
2018-07-08T10:26:18.613Z,28.70
2018-07-08T10:28:45.564Z,28.70
2018-07-08T10:31:12.310Z,28.70
2018-07-08T10:33:39.363Z,28.90
2018-07-08T10:36:06.506Z,28.90
2018-07-08T10:38:33.370Z,29.00
2018-07-08T10:41:00.321Z,29.10
2018-07-08T10:43:27.228Z,29.10
2018-07-08T10:45:54.937Z,29.50
2018-07-08T10:48:21.890Z,29.50
2018-07-08T10:50:48.847Z,28.00
2018-07-08T10:53:15.795Z,28.40
2018-07-08T10:55:42.642Z,28.20
2018-07-08T10:58:09.489Z,28.50
2018-07-08T11:00:37.670Z,28.00
2018-07-08T11:03:05.439Z,27.90
2018-07-08T11:05:32.291Z,27.60
2018-07-08T11:07:59.139Z,27.40
2018-07-08T11:10:26.193Z,27.40
2018-07-08T11:12:53.352Z,26.80
2018-07-08T11:15:20.302Z,26.90
2018-07-08T11:17:47.413Z,26.90
2018-07-08T11:20:15.019Z,27.10
2018-07-08T11:22:42.077Z,27.10
2018-07-08T11:25:09.129Z,27.20
2018-07-08T11:27:36.180Z,27.20
2018-07-08T11:30:03.950Z,27.30
2018-07-08T11:32:31.104Z,26.40
2018-07-08T11:34:58.262Z,26.50
2018-07-08T11:37:25.520Z,26.70
2018-07-08T11:39:52.983Z,26.90
2018-07-08T11:42:19.936Z,27.00
2018-07-08T11:44:47.195Z,27.10
2018-07-08T11:47:14.555Z,27.00
2018-07-08T11:49:41.506Z,27.20
2018-07-08T11:52:08.757Z,27.40
2018-07-08T11:54:35.550Z,27.40
2018-07-08T11:57:02.465Z,27.40
2018-07-08T11:59:29.723Z,27.40
2018-07-08T12:01:56.857Z,27.70
2018-07-08T12:04:24.448Z,27.70
2018-07-08T12:06:51.392Z,27.60
2018-07-08T12:09:18.654Z,27.70
2018-07-08T12:11:45.503Z,27.70
2018-07-08T12:14:12.863Z,27.30
2018-07-08T12:16:39.816Z,27.00
2018-07-08T12:19:06.666Z,27.20
2018-07-08T12:21:34.025Z,27.40
2018-07-08T12:24:00.870Z,27.60
2018-07-08T12:26:28.339Z,27.70
2018-07-08T12:28:55.799Z,27.30
2018-07-08T12:31:24.697Z,27.40
2018-07-08T12:33:51.955Z,27.30
2018-07-08T12:36:19.107Z,27.20
2018-07-08T12:38:46.167Z,27.00
2018-07-08T12:41:13.216Z,27.00
2018-07-08T12:43:40.269Z,26.60
2018-07-08T12:46:07.324Z,26.60
2018-07-08T12:48:35.096Z,26.40
2018-07-08T12:51:02.807Z,26.50
2018-07-08T12:53:30.327Z,26.30
2018-07-08T12:55:57.392Z,26.20
2018-07-08T12:58:25.064Z,26.00
2018-07-08T13:00:52.264Z,26.20
2018-07-08T13:03:19.258Z,26.40
2018-07-08T13:05:46.319Z,26.40
2018-07-08T13:08:13.363Z,26.40
2018-07-08T13:10:40.314Z,26.20
2018-07-08T13:13:07.266Z,26.30
2018-07-08T13:15:34.730Z,26.50
2018-07-08T13:18:02.196Z,26.50
2018-07-08T13:20:29.961Z,26.40
2018-07-08T13:23:05.003Z,26.60
2018-07-08T13:25:32.368Z,26.70
2018-07-08T13:27:59.426Z,26.50
2018-07-08T13:30:26.779Z,26.50
2018-07-08T13:32:54.275Z,26.40
2018-07-08T13:35:22.621Z,26.40
2018-07-08T13:37:50.495Z,26.40
2018-07-08T13:40:17.753Z,26.40
2018-07-08T13:42:45.111Z,26.30
2018-07-08T13:45:13.599Z,26.00
2018-07-08T13:47:40.958Z,26.10
2018-07-08T13:50:08.015Z,26.10
2018-07-08T13:52:36.548Z,26.50
2018-07-08T13:55:04.270Z,26.40
2018-07-08T13:57:31.017Z,26.40
2018-07-08T13:59:57.965Z,26.60
2018-07-08T14:02:25.755Z,26.10
2018-07-08T14:04:53.821Z,26.10
2018-07-08T14:07:20.866Z,26.10
2018-07-08T14:09:48.738Z,26.10
2018-07-08T14:12:17.191Z,26.10
2018-07-08T14:14:44.100Z,26.00
2018-07-08T14:17:11.232Z,26.00
2018-07-08T14:19:38.180Z,26.00
2018-07-08T14:22:06.157Z,26.20
2018-07-08T14:24:33.415Z,26.10
2018-07-08T14:27:00.470Z,26.10
2018-07-08T14:29:27.435Z,26.00
2018-07-08T14:31:54.887Z,26.10
2018-07-08T14:34:22.142Z,26.20
2018-07-08T14:36:50.015Z,25.80
2018-07-08T14:39:17.176Z,26.00
2018-07-08T14:41:44.429Z,26.30
2018-07-08T14:44:11.582Z,26.20
2018-07-08T14:46:39.562Z,26.40
2018-07-08T14:49:07.023Z,26.50
2018-07-08T14:51:34.794Z,26.40
2018-07-08T14:54:02.151Z,26.40
2018-07-08T14:56:29.000Z,26.20
2018-07-08T14:58:56.466Z,26.00
2018-07-08T15:01:23.414Z,26.00
2018-07-08T15:03:50.367Z,26.10
2018-07-08T15:06:19.056Z,26.20
2018-07-08T15:08:47.033Z,26.20
2018-07-08T15:11:14.600Z,26.30
2018-07-08T15:13:41.449Z,26.00
2018-07-08T15:16:09.528Z,26.20
2018-07-08T15:18:36.782Z,26.10
2018-07-08T15:21:04.665Z,26.20
2018-07-08T15:23:31.503Z,26.20
2018-07-08T15:25:58.659Z,26.20
2018-07-08T15:28:26.020Z,26.50
2018-07-08T15:30:52.863Z,26.60
2018-07-08T15:33:20.743Z,26.40
2018-07-08T15:35:48.003Z,26.40
2018-07-08T15:38:14.951Z,26.40
2018-07-08T15:40:41.801Z,26.40
2018-07-08T15:43:08.787Z,26.00
2018-07-08T15:45:35.808Z,26.10
2018-07-08T15:48:02.660Z,25.90
2018-07-08T15:50:29.707Z,25.70
2018-07-08T15:52:56.763Z,25.60
2018-07-08T15:55:23.613Z,25.30
2018-07-08T15:57:51.074Z,25.30
2018-07-08T16:00:18.027Z,25.40
2018-07-08T16:02:44.979Z,25.50
2018-07-08T16:05:12.339Z,25.40
2018-07-08T16:07:39.802Z,25.40
2018-07-08T16:10:07.290Z,25.20
2018-07-08T16:12:35.135Z,25.10
2018-07-08T16:15:02.491Z,25.10
2018-07-08T16:17:29.755Z,24.90
2018-07-08T16:19:56.810Z,24.80
2018-07-08T16:22:24.068Z,24.50
2018-07-08T16:24:51.359Z,24.20
2018-07-08T16:27:18.383Z,24.00
2018-07-08T16:29:45.748Z,23.90
2018-07-08T16:32:13.099Z,24.00
2018-07-08T16:34:40.358Z,24.00
2018-07-08T16:37:07.309Z,24.00
2018-07-08T16:39:35.598Z,24.00
2018-07-08T16:42:03.074Z,24.10
2018-07-08T16:44:30.934Z,24.00
2018-07-08T16:46:57.878Z,23.80
2018-07-08T16:49:24.830Z,23.70
2018-07-08T16:51:52.601Z,23.10
2018-07-08T16:54:19.754Z,23.00
2018-07-08T16:56:46.707Z,22.90
2018-07-08T16:59:13.555Z,22.70
2018-07-08T17:01:40.506Z,22.60
2018-07-08T17:04:08.381Z,22.40
2018-07-08T17:06:35.233Z,22.30
2018-07-08T17:09:02.986Z,22.10
2018-07-08T17:11:29.958Z,22.10
2018-07-08T17:13:57.721Z,22.00
2018-07-08T17:16:24.981Z,22.00
2018-07-08T17:18:51.933Z,22.00
2018-07-08T17:21:18.883Z,21.90
2018-07-08T17:23:45.833Z,21.80
2018-07-08T17:26:13.191Z,21.70
2018-07-08T17:28:40.145Z,21.60
2018-07-08T17:31:07.001Z,21.60
2018-07-08T17:33:34.103Z,21.70
2018-07-08T17:36:01.512Z,21.60
2018-07-08T17:38:28.462Z,21.50
2018-07-08T17:40:55.823Z,21.40
2018-07-08T17:43:22.672Z,21.40
2018-07-08T17:45:49.929Z,21.30
2018-07-08T17:48:17.085Z,21.30
2018-07-08T17:50:44.241Z,21.20
2018-07-08T17:53:11.192Z,21.20
2018-07-08T17:55:38.145Z,21.10
2018-07-08T17:58:05.302Z,21.00
2018-07-08T18:00:32.150Z,21.00
2018-07-08T18:02:58.899Z,20.90
2018-07-08T18:05:26.869Z,20.80
2018-07-08T18:07:54.232Z,20.80
2018-07-08T18:10:22.410Z,20.50
2018-07-08T18:12:49.258Z,20.50
2018-07-08T18:15:16.724Z,20.40
2018-07-08T18:17:43.675Z,20.30
2018-07-08T18:20:10.624Z,20.20
2018-07-08T18:22:38.016Z,20.00
2018-07-08T18:25:05.346Z,19.90
2018-07-08T18:27:32.708Z,19.80
2018-07-08T18:29:59.864Z,19.70
2018-07-08T18:32:26.716Z,19.60
2018-07-08T18:34:53.968Z,19.50
2018-07-08T18:37:21.025Z,19.40
2018-07-08T18:39:48.077Z,19.30
2018-07-08T18:42:15.230Z,19.30
2018-07-08T18:44:42.492Z,19.30
2018-07-08T18:47:09.953Z,19.20
2018-07-08T18:49:37.418Z,19.20
2018-07-08T18:52:04.369Z,19.00
2018-07-08T18:54:31.217Z,18.90
2018-07-08T18:56:58.170Z,18.90
2018-07-08T18:59:25.020Z,18.90
2018-07-08T19:01:51.866Z,18.80
2018-07-08T19:04:19.328Z,18.80
2018-07-08T19:06:46.185Z,18.70
2018-07-08T19:09:13.910Z,18.70
2018-07-08T19:11:41.316Z,18.60
2018-07-08T19:14:08.162Z,18.60
2018-07-08T19:16:35.418Z,18.60
2018-07-08T19:19:02.573Z,18.50
2018-07-08T19:21:29.935Z,18.50
2018-07-08T19:23:56.887Z,18.30
2018-07-08T19:26:24.347Z,18.20
2018-07-08T19:28:51.728Z,18.10
2018-07-08T19:31:18.968Z,17.90
2018-07-08T19:33:45.728Z,17.90
2018-07-08T19:36:12.872Z,17.60
2018-07-08T19:38:40.232Z,17.50
2018-07-08T19:41:07.111Z,17.30
2018-07-08T19:43:35.163Z,17.20
2018-07-08T19:46:03.175Z,17.10
2018-07-08T19:48:30.240Z,17.00
2018-07-08T19:50:57.446Z,16.90
2018-07-08T19:53:25.624Z,16.70
2018-07-08T19:55:54.006Z,16.60
2018-07-08T19:58:21.598Z,16.50
2018-07-08T20:00:49.166Z,16.40
2018-07-08T20:03:17.891Z,16.20
2018-07-08T20:05:44.676Z,16.20
2018-07-08T20:08:11.630Z,16.10
2018-07-08T20:10:40.015Z,16.00
2018-07-08T20:13:07.375Z,15.90
2018-07-08T20:15:34.529Z,15.80
2018-07-08T20:18:01.685Z,15.80
2018-07-08T20:20:29.727Z,15.70
2018-07-08T20:22:56.919Z,15.60
2018-07-08T20:25:23.870Z,15.50
2018-07-08T20:27:50.694Z,15.40
2018-07-08T20:30:18.694Z,15.30
2018-07-08T20:32:47.084Z,15.20
2018-07-08T20:35:14.953Z,15.00
2018-07-08T20:37:42.004Z,14.90
2018-07-08T20:40:08.957Z,14.80
2018-07-08T20:42:35.749Z,14.80
2018-07-08T20:45:02.756Z,14.70
2018-07-08T20:47:30.935Z,14.60
2018-07-08T20:49:59.016Z,14.60
2018-07-08T20:52:25.962Z,14.50
2018-07-08T20:54:53.016Z,14.40
2018-07-08T20:57:20.480Z,14.40
2018-07-08T20:59:47.433Z,14.40
2018-07-08T21:02:15.317Z,14.20
2018-07-08T21:04:42.562Z,14.20
2018-07-08T21:07:09.821Z,14.10
2018-07-08T21:09:36.672Z,14.00
2018-07-08T21:12:03.619Z,14.00
2018-07-08T21:14:31.700Z,13.80
2018-07-08T21:16:58.651Z,13.70
2018-07-08T21:19:25.496Z,13.70
2018-07-08T21:21:52.451Z,13.60
2018-07-08T21:24:19.402Z,13.50
2018-07-08T21:26:46.249Z,13.40
2018-07-08T21:29:13.233Z,13.40
2018-07-08T21:31:40.358Z,13.30
2018-07-08T21:34:07.921Z,13.30
2018-07-08T21:36:34.898Z,13.10
2018-07-08T21:39:02.747Z,13.10
2018-07-08T21:41:29.700Z,13.00
2018-07-08T21:43:56.652Z,12.90
2018-07-08T21:46:23.600Z,12.80
2018-07-08T21:48:50.551Z,12.70
2018-07-08T21:51:17.401Z,12.60
2018-07-08T21:53:44.362Z,12.60
2018-07-08T21:56:11.406Z,12.50
2018-07-08T21:58:38.356Z,12.40
2018-07-08T22:01:05.411Z,12.40
2018-07-08T22:03:32.271Z,12.30
2018-07-08T22:05:59.210Z,12.20
2018-07-08T22:08:26.064Z,12.10
2018-07-08T22:10:52.912Z,12.00
2018-07-08T22:13:19.860Z,11.90
2018-07-08T22:15:46.709Z,11.90
2018-07-08T22:18:13.662Z,11.70
2018-07-08T22:20:40.510Z,11.70
2018-07-08T22:23:07.359Z,11.60
2018-07-08T22:25:34.313Z,11.60
2018-07-08T22:28:01.571Z,11.50
2018-07-08T22:30:28.519Z,11.50
2018-07-08T22:32:57.249Z,11.30
2018-07-08T22:35:24.164Z,11.30
2018-07-08T22:37:51.118Z,11.30
2018-07-08T22:40:17.961Z,11.20
2018-07-08T22:42:45.018Z,11.10
2018-07-08T22:45:11.877Z,11.00
2018-07-08T22:47:38.817Z,10.90
2018-07-08T22:50:05.767Z,10.90
2018-07-08T22:52:33.332Z,10.90
2018-07-08T22:55:00.287Z,10.90
2018-07-08T22:57:27.235Z,10.80
2018-07-08T22:59:54.290Z,10.70
2018-07-08T23:02:34.340Z,10.70
2018-07-08T23:05:01.293Z,10.60
2018-07-08T23:07:28.147Z,10.60
2018-07-08T23:09:55.398Z,10.60
2018-07-08T23:12:22.275Z,10.40
2018-07-08T23:14:49.098Z,10.40
2018-07-08T23:17:16.255Z,10.30
2018-07-08T23:19:42.999Z,10.30
2018-07-08T23:22:10.667Z,10.20
2018-07-08T23:24:37.925Z,10.20
2018-07-08T23:27:04.729Z,10.10
2018-07-08T23:29:31.724Z,10.20
2018-07-08T23:31:58.684Z,10.10
2018-07-08T23:34:25.525Z,10.10
2018-07-08T23:36:52.372Z,10.10
2018-07-08T23:39:19.223Z,10.00
2018-07-08T23:41:46.190Z,10.00
2018-07-08T23:44:13.228Z,10.00
2018-07-08T23:46:39.977Z,9.90
2018-07-08T23:49:06.928Z,9.80
2018-07-08T23:51:33.880Z,9.90
2018-07-08T23:54:00.728Z,9.90
2018-07-08T23:56:27.782Z,9.80
2018-07-08T23:58:54.630Z,9.80
